createdAt,value
2019-04-06T00:01:27.820Z,8.82
2019-04-06T00:04:06.639Z,8.76
2019-04-06T00:06:43.450Z,8.72
2019-04-06T00:09:26.817Z,8.61
2019-04-06T00:12:02.060Z,8.66
2019-04-06T00:14:35.118Z,8.71
2019-04-06T00:17:07.915Z,8.66
2019-04-06T00:19:53.000Z,8.68
2019-04-06T00:22:23.795Z,8.66
2019-04-06T00:24:54.617Z,8.47
2019-04-06T00:27:42.242Z,8.64
2019-04-06T00:30:32.498Z,8.50
2019-04-06T00:33:04.982Z,8.53
2019-04-06T00:35:50.225Z,8.65
2019-04-06T00:38:25.535Z,8.71
2019-04-06T00:41:12.861Z,8.61
2019-04-06T00:43:43.790Z,8.47
2019-04-06T00:46:15.695Z,8.57
2019-04-06T00:48:46.659Z,8.69
2019-04-06T00:51:18.422Z,8.48
2019-04-06T00:53:49.242Z,8.48
2019-04-06T00:56:20.130Z,8.52
2019-04-06T00:58:54.687Z,8.64
2019-04-06T01:01:27.452Z,8.57
2019-04-06T01:03:59.348Z,8.52
2019-04-06T01:06:30.177Z,8.55
2019-04-06T01:09:01.672Z,8.57
2019-04-06T01:11:33.928Z,8.54
2019-04-06T01:14:04.840Z,8.55
2019-04-06T01:16:35.619Z,8.38
2019-04-06T01:19:11.753Z,8.54
2019-04-06T01:21:42.555Z,8.62
2019-04-06T01:24:13.467Z,8.56
2019-04-06T01:26:45.292Z,8.57
2019-04-06T01:29:18.106Z,8.61
2019-04-06T01:31:58.145Z,8.64
2019-04-06T01:34:30.061Z,8.61
2019-04-06T01:37:00.822Z,8.75
2019-04-06T01:39:33.786Z,8.69
2019-04-06T01:42:07.801Z,8.74
2019-04-06T01:44:38.721Z,8.80
2019-04-06T01:47:09.525Z,8.78
2019-04-06T01:49:46.246Z,8.85
2019-04-06T01:52:21.204Z,8.79
2019-04-06T01:54:52.040Z,8.74
2019-04-06T01:57:30.924Z,8.66
2019-04-06T02:00:02.845Z,8.76
2019-04-06T02:02:35.555Z,8.57
2019-04-06T02:05:07.023Z,8.64
2019-04-06T02:07:53.885Z,8.69
2019-04-06T02:10:30.535Z,8.77
2019-04-06T02:13:08.355Z,8.72
2019-04-06T02:15:57.712Z,8.73
2019-04-06T02:18:46.230Z,8.71
2019-04-06T02:21:17.072Z,8.54
2019-04-06T02:23:47.782Z,8.68
2019-04-06T02:26:29.669Z,8.43
2019-04-06T02:28:52.071Z,8.62
2019-04-06T02:31:45.178Z,8.62
2019-04-06T02:34:26.711Z,8.50
2019-04-06T02:36:59.234Z,8.57
2019-04-06T02:39:46.721Z,8.66
2019-04-06T02:42:22.033Z,8.63
2019-04-06T02:44:52.831Z,8.66
2019-04-06T02:47:24.683Z,8.59
2019-04-06T02:50:01.447Z,8.60
2019-04-06T02:52:36.718Z,8.57
2019-04-06T02:55:07.569Z,8.71
2019-04-06T02:57:38.443Z,8.61
2019-04-06T03:00:11.492Z,8.73
2019-04-06T03:02:44.341Z,8.79
2019-04-06T03:05:15.156Z,8.78
2019-04-06T03:07:45.995Z,8.68
2019-04-06T03:10:16.877Z,8.73
2019-04-06T03:12:47.745Z,8.83
2019-04-06T03:15:18.513Z,8.66
2019-04-06T03:17:52.720Z,8.88
2019-04-06T03:20:24.580Z,8.83
2019-04-06T03:22:56.302Z,8.87
2019-04-06T03:25:27.337Z,8.79
2019-04-06T03:27:58.654Z,8.78
2019-04-06T03:30:37.884Z,8.81
2019-04-06T03:33:09.964Z,8.80
2019-04-06T03:35:53.280Z,8.71
2019-04-06T03:38:44.637Z,8.76
2019-04-06T03:41:15.537Z,8.82
2019-04-06T03:43:48.665Z,8.85
2019-04-06T03:46:24.705Z,8.92
2019-04-06T03:48:55.687Z,9.00
2019-04-06T03:51:26.472Z,8.97
2019-04-06T03:53:59.163Z,9.03
2019-04-06T03:56:32.040Z,8.88
2019-04-06T03:59:03.007Z,8.81
2019-04-06T04:01:33.775Z,8.91
2019-04-06T04:04:16.624Z,8.92
2019-04-06T04:06:47.329Z,8.91
2019-04-06T04:09:20.267Z,8.84
2019-04-06T04:11:51.074Z,8.79
2019-04-06T04:14:21.927Z,8.90
2019-04-06T04:16:52.725Z,8.88
2019-04-06T04:19:24.585Z,8.84
2019-04-06T04:21:56.346Z,8.95
2019-04-06T04:24:36.172Z,9.00
2019-04-06T04:27:06.906Z,8.93
2019-04-06T04:29:44.735Z,8.88
2019-04-06T04:32:16.855Z,8.93
2019-04-06T04:34:47.742Z,8.97
2019-04-06T04:37:18.718Z,8.89
2019-04-06T04:39:50.511Z,8.92
2019-04-06T04:42:23.544Z,8.89
2019-04-06T04:45:01.020Z,8.99
2019-04-06T04:47:32.017Z,8.97
2019-04-06T04:50:03.889Z,9.00
2019-04-06T04:52:35.803Z,8.95
2019-04-06T04:55:08.401Z,8.97
2019-04-06T04:57:45.372Z,8.90
2019-04-06T05:00:26.442Z,8.99
2019-04-06T05:02:57.326Z,8.96
2019-04-06T05:05:28.135Z,8.94
2019-04-06T05:08:02.851Z,9.00
2019-04-06T05:10:33.640Z,9.00
2019-04-06T05:13:05.683Z,8.78
2019-04-06T05:16:09.368Z,8.84
2019-04-06T05:18:44.770Z,8.85
2019-04-06T05:21:16.110Z,8.84
2019-04-06T05:23:53.972Z,8.96
2019-04-06T05:26:36.852Z,8.90
2019-04-06T05:28:58.987Z,8.88
2019-04-06T05:31:30.046Z,8.88
2019-04-06T05:34:10.098Z,8.89
2019-04-06T05:36:40.933Z,8.92
2019-04-06T05:39:12.004Z,8.93
2019-04-06T05:41:42.788Z,8.96
2019-04-06T05:44:14.107Z,8.99
2019-04-06T05:46:45.070Z,8.85
2019-04-06T05:49:21.999Z,9.00
2019-04-06T05:51:55.992Z,8.92
2019-04-06T05:54:27.902Z,9.08
2019-04-06T05:56:59.047Z,9.12
2019-04-06T05:59:48.481Z,9.18
2019-04-06T06:02:19.376Z,9.25
2019-04-06T06:04:50.190Z,9.12
2019-04-06T06:07:20.993Z,9.27
2019-04-06T06:09:53.932Z,9.21
2019-04-06T06:12:25.737Z,9.27
2019-04-06T06:14:59.920Z,9.24
2019-04-06T06:17:32.583Z,9.35
2019-04-06T06:20:18.491Z,9.41
2019-04-06T06:23:00.610Z,9.38
2019-04-06T06:25:31.778Z,9.43
2019-04-06T06:28:13.511Z,9.13
2019-04-06T06:30:35.072Z,9.22
2019-04-06T06:33:05.937Z,9.23
2019-04-06T06:35:48.800Z,9.41
2019-04-06T06:38:19.745Z,9.54
2019-04-06T06:40:51.553Z,9.58
2019-04-06T06:43:22.448Z,9.65
2019-04-06T06:45:53.516Z,9.64
2019-04-06T06:48:24.521Z,9.56
2019-04-06T06:50:55.397Z,9.66
2019-04-06T06:53:26.292Z,9.78
2019-04-06T06:56:00.232Z,9.81
2019-04-06T06:58:31.268Z,9.70
2019-04-06T07:01:03.307Z,9.77
2019-04-06T07:03:40.896Z,9.85
2019-04-06T07:06:17.885Z,9.90
2019-04-06T07:08:49.035Z,9.57
2019-04-06T07:11:19.835Z,9.42
2019-04-06T07:13:52.751Z,9.42
2019-04-06T07:16:23.621Z,9.65
2019-04-06T07:18:54.423Z,9.81
2019-04-06T07:21:34.577Z,9.86
2019-04-06T07:24:05.376Z,9.95
2019-04-06T07:26:36.045Z,9.97
2019-04-06T07:29:06.904Z,9.96
2019-04-06T07:31:44.688Z,10.06
2019-04-06T07:34:15.439Z,10.24
2019-04-06T07:36:57.693Z,10.62
2019-04-06T07:39:39.584Z,10.54
2019-04-06T07:42:21.743Z,10.50
2019-04-06T07:44:52.379Z,10.39
2019-04-06T07:47:23.212Z,10.43
2019-04-06T07:49:53.972Z,10.60
2019-04-06T07:52:28.425Z,10.50
2019-04-06T07:55:00.327Z,10.53
2019-04-06T07:57:31.077Z,10.34
2019-04-06T08:00:01.783Z,10.43
2019-04-06T08:02:33.955Z,10.61
2019-04-06T08:05:27.859Z,10.71
2019-04-06T08:07:58.742Z,10.84
2019-04-06T08:10:29.460Z,10.96
2019-04-06T08:13:00.234Z,10.85
2019-04-06T08:15:37.049Z,11.01
2019-04-06T08:18:08.135Z,10.88
2019-04-06T08:20:38.888Z,11.05
2019-04-06T08:23:09.859Z,11.10
2019-04-06T08:25:40.491Z,11.15
2019-04-06T08:28:16.315Z,11.26
2019-04-06T08:30:47.191Z,11.29
2019-04-06T08:33:18.876Z,11.06
2019-04-06T08:35:56.622Z,11.04
2019-04-06T08:38:27.259Z,11.14
2019-04-06T08:40:58.088Z,11.29
2019-04-06T08:43:41.523Z,11.15
2019-04-06T08:46:12.315Z,11.22
2019-04-06T08:48:44.189Z,11.15
2019-04-06T08:51:14.954Z,11.32
2019-04-06T08:53:45.635Z,11.49
2019-04-06T08:56:17.576Z,11.56
2019-04-06T08:58:48.370Z,11.53
2019-04-06T09:01:20.528Z,11.66
2019-04-06T09:03:51.362Z,11.56
2019-04-06T09:06:25.316Z,11.31
2019-04-06T09:08:56.154Z,11.39
2019-04-06T09:11:26.880Z,11.48
2019-04-06T09:13:57.927Z,11.66
2019-04-06T09:16:28.784Z,11.69
2019-04-06T09:19:01.623Z,11.81
2019-04-06T09:21:32.369Z,11.89
2019-04-06T09:24:04.221Z,11.97
2019-04-06T09:26:36.059Z,12.16
2019-04-06T09:29:06.830Z,12.18
2019-04-06T09:31:38.413Z,11.95
2019-04-06T09:34:09.083Z,12.08
2019-04-06T09:36:39.967Z,12.06
2019-04-06T09:39:10.666Z,12.22
2019-04-06T09:41:48.733Z,12.24
2019-04-06T09:44:26.617Z,12.26
2019-04-06T09:47:05.224Z,12.32
2019-04-06T09:49:45.703Z,12.03
2019-04-06T09:52:33.768Z,12.18
2019-04-06T09:55:17.910Z,12.13
2019-04-06T09:57:55.964Z,12.22
2019-04-06T10:00:44.792Z,12.45
2019-04-06T10:03:37.916Z,12.54
2019-04-06T10:06:10.934Z,12.66
2019-04-06T10:08:49.717Z,12.62
2019-04-06T10:11:25.072Z,12.63
2019-04-06T10:14:00.053Z,12.67
2019-04-06T10:16:33.765Z,12.65
2019-04-06T10:19:16.093Z,12.55
2019-04-06T10:22:00.779Z,12.26
2019-04-06T10:24:45.325Z,12.11
2019-04-06T10:27:20.546Z,11.97
2019-04-06T10:30:18.013Z,11.95
2019-04-06T10:32:53.482Z,12.10
2019-04-06T10:35:26.867Z,12.23
2019-04-06T10:38:17.321Z,12.14
2019-04-06T10:40:56.812Z,12.26
2019-04-06T10:43:43.942Z,12.27
2019-04-06T10:46:34.946Z,12.18
2019-04-06T10:49:27.837Z,12.22
2019-04-06T10:52:16.327Z,12.53
2019-04-06T10:55:07.058Z,12.49
2019-04-06T10:57:55.493Z,12.71
2019-04-06T11:00:27.935Z,12.83
2019-04-06T11:03:00.334Z,12.98
2019-04-06T11:05:32.672Z,12.92
2019-04-06T11:08:14.444Z,12.91
2019-04-06T11:10:47.902Z,12.98
2019-04-06T11:13:26.247Z,13.15
2019-04-06T11:16:11.141Z,13.32
2019-04-06T11:18:59.920Z,13.48
2019-04-06T11:21:47.645Z,13.24
2019-04-06T11:24:36.205Z,13.29
2019-04-06T11:27:13.480Z,13.47
2019-04-06T11:30:11.972Z,13.58
2019-04-06T11:32:34.354Z,13.48
2019-04-06T11:35:09.937Z,13.33
2019-04-06T11:37:42.426Z,13.15
2019-04-06T11:40:26.766Z,13.29
2019-04-06T11:43:00.135Z,13.18
2019-04-06T11:45:35.675Z,13.42
2019-04-06T11:48:26.445Z,13.68
2019-04-06T11:50:58.706Z,13.77
2019-04-06T11:53:47.440Z,13.87
2019-04-06T11:56:31.690Z,13.94
2019-04-06T11:59:20.679Z,14.05
2019-04-06T12:02:11.373Z,13.91
2019-04-06T12:04:47.409Z,14.10
2019-04-06T12:07:22.640Z,14.12
2019-04-06T12:09:55.094Z,14.23
2019-04-06T12:12:33.778Z,14.29
2019-04-06T12:15:06.386Z,14.42
2019-04-06T12:17:42.702Z,14.51
2019-04-06T12:20:27.165Z,14.51
2019-04-06T12:23:16.756Z,14.35
2019-04-06T12:26:05.412Z,14.35
2019-04-06T12:28:56.389Z,14.46
2019-04-06T12:31:34.806Z,14.32
2019-04-06T12:34:13.414Z,14.33
2019-04-06T12:36:51.546Z,14.35
2019-04-06T12:39:32.942Z,14.28
2019-04-06T12:42:05.331Z,14.45
2019-04-06T12:45:03.167Z,14.42
2019-04-06T12:47:38.723Z,14.41
2019-04-06T12:50:27.284Z,14.54
2019-04-06T12:53:15.829Z,14.63
2019-04-06T12:55:48.527Z,14.67
2019-04-06T12:58:23.742Z,14.87
2019-04-06T13:01:01.739Z,14.82
2019-04-06T13:03:43.941Z,14.87
2019-04-06T13:06:24.368Z,14.96
2019-04-06T13:09:14.753Z,14.68
2019-04-06T13:12:12.688Z,14.55
2019-04-06T13:15:05.458Z,14.68
2019-04-06T13:17:37.781Z,14.90
2019-04-06T13:20:25.525Z,14.79
2019-04-06T13:23:11.066Z,14.91
2019-04-06T13:25:58.573Z,15.05
2019-04-06T13:28:34.429Z,15.05
2019-04-06T13:31:16.607Z,15.10
2019-04-06T13:33:51.108Z,15.19
2019-04-06T13:37:04.161Z,15.29
2019-04-06T13:39:43.140Z,15.27
2019-04-06T13:42:16.523Z,15.42
2019-04-06T13:44:54.767Z,15.53
2019-04-06T13:47:43.435Z,15.50
2019-04-06T13:50:18.780Z,15.43
2019-04-06T13:53:03.366Z,15.48
2019-04-06T13:55:52.386Z,15.66
2019-04-06T13:58:33.911Z,15.66
2019-04-06T14:01:14.485Z,15.77
2019-04-06T14:03:40.272Z,15.81
2019-04-06T14:06:31.426Z,15.90
2019-04-06T14:09:17.048Z,15.90
2019-04-06T14:11:58.448Z,15.94
2019-04-06T14:14:37.965Z,16.05
2019-04-06T14:17:15.652Z,16.00
2019-04-06T14:19:47.946Z,15.95
2019-04-06T14:22:44.646Z,15.89
2019-04-06T14:25:17.018Z,16.02
2019-04-06T14:27:55.318Z,16.03
2019-04-06T14:30:33.926Z,16.07
2019-04-06T14:33:09.447Z,16.18
2019-04-06T14:35:58.165Z,16.27
2019-04-06T14:38:39.841Z,16.16
2019-04-06T14:41:16.726Z,16.14
2019-04-06T14:44:06.519Z,16.21
2019-04-06T14:46:45.123Z,16.14
2019-04-06T14:49:35.558Z,16.22
2019-04-06T14:52:07.979Z,16.19
2019-04-06T14:54:55.611Z,16.20
2019-04-06T14:57:29.603Z,16.06
2019-04-06T15:00:04.680Z,16.12
2019-04-06T15:02:47.667Z,16.16
2019-04-06T15:05:36.497Z,16.18
2019-04-06T15:08:25.994Z,16.17
2019-04-06T15:10:58.380Z,16.29
2019-04-06T15:13:31.902Z,16.24
2019-04-06T15:16:07.603Z,16.07
2019-04-06T15:18:52.263Z,16.17
2019-04-06T15:21:43.424Z,16.12
2019-04-06T15:24:30.813Z,16.15
2019-04-06T15:27:19.171Z,16.18
2019-04-06T15:29:56.401Z,16.17
2019-04-06T15:32:45.177Z,16.24
2019-04-06T15:35:33.597Z,16.17
2019-04-06T15:38:22.668Z,16.25
2019-04-06T15:40:55.076Z,16.27
2019-04-06T15:43:35.549Z,16.30
2019-04-06T15:46:34.697Z,16.34
2019-04-06T15:49:26.554Z,16.42
2019-04-06T15:52:09.640Z,16.38
2019-04-06T15:54:35.727Z,16.37
2019-04-06T15:57:09.153Z,16.36
2019-04-06T15:59:42.415Z,16.38
2019-04-06T16:02:14.724Z,16.41
2019-04-06T16:04:56.283Z,16.37
2019-04-06T16:07:38.152Z,16.34
2019-04-06T16:10:19.722Z,16.38
2019-04-06T16:12:56.101Z,16.40
2019-04-06T16:15:45.268Z,16.43
2019-04-06T16:18:27.677Z,16.46
2019-04-06T16:21:18.094Z,16.46
2019-04-06T16:24:08.322Z,16.49
2019-04-06T16:26:41.180Z,16.48
2019-04-06T16:29:16.126Z,16.47
2019-04-06T16:32:11.522Z,16.46
2019-04-06T16:34:58.045Z,16.46
2019-04-06T16:37:33.211Z,16.43
2019-04-06T16:40:14.792Z,16.41
2019-04-06T16:42:47.330Z,16.41
2019-04-06T16:45:31.566Z,16.39
2019-04-06T16:48:05.405Z,16.35
2019-04-06T16:50:53.948Z,16.29
2019-04-06T16:53:32.255Z,16.35
2019-04-06T16:56:13.585Z,16.31
2019-04-06T16:58:49.118Z,16.27
2019-04-06T17:01:34.226Z,16.23
2019-04-06T17:04:20.456Z,16.20
2019-04-06T17:07:01.899Z,16.18
2019-04-06T17:09:40.073Z,16.14
2019-04-06T17:12:15.410Z,16.12
2019-04-06T17:15:05.249Z,16.10
2019-04-06T17:17:41.872Z,16.07
2019-04-06T17:20:14.300Z,16.12
2019-04-06T17:22:53.336Z,16.14
2019-04-06T17:25:27.810Z,16.09
2019-04-06T17:28:14.020Z,16.07
2019-04-06T17:30:49.598Z,16.04
2019-04-06T17:33:38.840Z,16.00
2019-04-06T17:36:11.400Z,15.93
2019-04-06T17:38:49.536Z,15.87
2019-04-06T17:41:22.891Z,15.80
2019-04-06T17:43:57.818Z,15.81
2019-04-06T17:46:39.549Z,15.78
2019-04-06T17:49:36.007Z,15.68
2019-04-06T17:55:10.655Z,15.52
2019-04-06T17:57:52.336Z,15.47
2019-04-06T18:00:40.967Z,15.39
2019-04-06T18:03:13.489Z,15.32
2019-04-06T18:06:03.264Z,15.21
2019-04-06T18:08:52.231Z,15.19
2019-04-06T18:11:40.143Z,15.11
2019-04-06T18:14:14.631Z,15.01
2019-04-06T18:17:03.021Z,14.94
2019-04-06T18:19:40.740Z,14.88
2019-04-06T18:22:12.377Z,14.76
2019-04-06T18:24:48.224Z,14.67
2019-04-06T18:27:20.549Z,14.60
2019-04-06T18:29:55.631Z,14.52
2019-04-06T18:32:43.830Z,14.48
2019-04-06T18:35:25.651Z,14.43
2019-04-06T18:38:13.621Z,14.36
2019-04-06T18:40:56.037Z,14.30
2019-04-06T18:43:30.523Z,14.20
2019-04-06T18:46:15.827Z,14.14
2019-04-06T18:48:49.555Z,14.06
2019-04-06T18:51:20.756Z,14.00
2019-04-06T18:54:01.616Z,13.91
2019-04-06T18:56:36.659Z,13.83
2019-04-06T18:59:07.954Z,13.77
2019-04-06T19:01:43.860Z,13.73
2019-04-06T19:04:15.749Z,13.66
2019-04-06T19:07:02.739Z,13.60
2019-04-06T19:09:35.104Z,13.57
2019-04-06T19:12:12.079Z,13.53
2019-04-06T19:14:53.267Z,13.41
2019-04-06T19:17:24.207Z,13.36
2019-04-06T19:19:55.514Z,13.37
2019-04-06T19:22:28.411Z,13.31
2019-04-06T19:25:01.202Z,13.29
2019-04-06T19:27:32.263Z,13.20
2019-04-06T19:30:07.727Z,13.18
2019-04-06T19:32:39.012Z,13.14
2019-04-06T19:35:16.995Z,13.10
2019-04-06T19:37:51.971Z,13.07
2019-04-06T19:40:22.937Z,13.02
2019-04-06T19:42:53.822Z,12.97
2019-04-06T19:45:24.938Z,12.92
2019-04-06T19:47:59.424Z,12.88
2019-04-06T19:50:31.487Z,12.85
2019-04-06T19:53:02.355Z,12.84
2019-04-06T19:55:34.549Z,12.81
2019-04-06T19:58:06.367Z,12.81
2019-04-06T20:00:41.602Z,12.76
2019-04-06T20:03:36.776Z,12.78
2019-04-06T20:06:06.675Z,12.71
2019-04-06T20:08:50.163Z,12.68
2019-04-06T20:11:21.098Z,12.68
2019-04-06T20:13:58.998Z,12.67
2019-04-06T20:16:31.169Z,12.63
2019-04-06T20:19:02.242Z,12.63
2019-04-06T20:21:36.434Z,12.56
2019-04-06T20:24:19.656Z,12.52
2019-04-06T20:26:51.071Z,12.50
2019-04-06T20:29:23.086Z,12.48
2019-04-06T20:31:53.750Z,12.43
2019-04-06T20:34:29.645Z,12.39
2019-04-06T20:37:03.793Z,12.41
2019-04-06T20:39:41.348Z,12.40
2019-04-06T20:42:12.300Z,12.39
2019-04-06T20:44:44.084Z,12.36
2019-04-06T20:47:14.787Z,12.30
2019-04-06T20:49:48.969Z,12.31
2019-04-06T20:52:19.906Z,12.26
2019-04-06T20:54:53.798Z,12.24
2019-04-06T20:57:24.423Z,12.21
2019-04-06T20:59:59.530Z,12.18
2019-04-06T21:02:39.304Z,12.17
2019-04-06T21:05:33.045Z,12.15
2019-04-06T21:08:09.470Z,12.16
2019-04-06T21:10:40.753Z,12.10
2019-04-06T21:13:11.612Z,12.09
2019-04-06T21:15:43.060Z,12.07
2019-04-06T21:18:14.599Z,12.05
2019-04-06T21:20:55.479Z,12.03
2019-04-06T21:23:26.356Z,12.05
2019-04-06T21:25:58.454Z,11.96
2019-04-06T21:28:29.935Z,11.94
2019-04-06T21:31:00.620Z,11.94
2019-04-06T21:33:41.384Z,11.88
2019-04-06T21:36:21.756Z,11.88
2019-04-06T21:38:52.551Z,11.87
2019-04-06T21:41:23.280Z,11.88
2019-04-06T21:43:54.598Z,11.86
2019-04-06T21:46:25.626Z,11.82
2019-04-06T21:48:58.745Z,11.79
2019-04-06T21:51:29.646Z,11.79
2019-04-06T21:54:03.087Z,11.79
2019-04-06T21:56:34.205Z,11.77
2019-04-06T21:59:05.362Z,11.76
2019-04-06T22:01:48.867Z,11.75
2019-04-06T22:04:25.257Z,11.76
2019-04-06T22:06:52.903Z,11.64
2019-04-06T22:09:24.247Z,11.65
2019-04-06T22:11:55.845Z,11.67
2019-04-06T22:14:26.884Z,11.65
2019-04-06T22:16:58.375Z,11.64
2019-04-06T22:19:30.417Z,11.61
2019-04-06T22:22:02.175Z,11.57
2019-04-06T22:24:32.819Z,11.56
2019-04-06T22:27:03.961Z,11.59
2019-04-06T22:30:21.161Z,11.60
2019-04-06T22:32:52.408Z,11.60
2019-04-06T22:35:23.219Z,11.63
2019-04-06T22:37:55.358Z,11.66
2019-04-06T22:40:26.345Z,11.63
2019-04-06T22:43:08.837Z,11.60
2019-04-06T22:45:56.474Z,11.63
2019-04-06T22:48:28.302Z,11.58
2019-04-06T22:50:59.056Z,11.61
2019-04-06T22:53:36.818Z,11.64
2019-04-06T22:56:07.740Z,11.68
2019-04-06T22:58:38.498Z,11.64
2019-04-06T23:01:11.859Z,11.63
2019-04-06T23:03:50.478Z,11.63
2019-04-06T23:06:35.788Z,11.70
2019-04-06T23:09:11.404Z,11.69
2019-04-06T23:11:42.016Z,11.71
2019-04-06T23:14:12.684Z,11.71
2019-04-06T23:16:43.742Z,11.77
2019-04-06T23:19:15.439Z,11.78
2019-04-06T23:21:46.597Z,11.80
2019-04-06T23:24:20.395Z,11.84
2019-04-06T23:26:51.521Z,11.88
2019-04-06T23:29:23.263Z,11.91
2019-04-06T23:31:56.021Z,11.97
2019-04-06T23:34:30.586Z,11.98
2019-04-06T23:37:01.086Z,12.00
2019-04-06T23:39:32.112Z,12.01
2019-04-06T23:42:08.571Z,12.03
2019-04-06T23:44:39.753Z,12.06
2019-04-06T23:47:10.516Z,12.11
2019-04-06T23:49:41.784Z,12.14
2019-04-06T23:52:12.561Z,12.17
2019-04-06T23:54:50.347Z,12.17
2019-04-06T23:57:20.958Z,12.21
2019-04-06T23:59:51.589Z,12.21
